Time;durP1;ratioP1;P1;durP2;ratioP2;P2;SDS_P1;SDS_P2;PMS_P1;PMS_P2;Temp;Humidity;BMP_temperature;BMP_pressure;BME280_temperature;BME280_humidity;BME280_pressure;Samples;Min_cycle;Max_cycle;Signal;HPM_P1;HPM_P2
2023/05/22 00:01:41;;;;;;;7.78;3.70;;;;;;;;;;4384251;32;70268;-62
2023/05/22 00:04:28;;;;;;;7.45;4.30;;;;;;;;;;4372545;32;68996;-62
2023/05/22 00:07:15;;;;;;;8.82;4.18;;;;;;;;;;4361829;32;67574;-62
2023/05/22 00:10:03;;;;;;;9.23;4.12;;;;;;;;;;4372328;32;71210;-62
2023/05/22 00:12:49;;;;;;;;;;;;;;;;;;4371471;32;66541;-62
2023/05/22 00:15:35;;;;;;;7.55;4.37;;;;;;;;;;4372776;32;68128;-62
2023/05/22 00:18:24;;;;;;;8.18;4.05;;;;;;;;;;4372335;32;66621;-62
2023/05/22 00:21:11;;;;;;;10.05;4.22;;;;;;;;;;4382556;32;71677;-62
2023/05/22 00:23:57;;;;;;;12.63;4.82;;;;;;;;;;4362039;32;65535;-62
2023/05/22 00:26:44;;;;;;;10.27;4.00;;;;;;;;;;4382991;32;66750;-63
2023/05/22 00:29:30;;;;;;;12.40;5.05;;;;;;;;;;4372157;32;60302;-63
2023/05/22 00:32:17;;;;;;;12.98;4.43;;;;;;;;;;4361354;32;70157;-62
2023/05/22 00:35:05;;;;;;;7.25;3.85;;;;;;;;;;4349609;32;70065;-62
2023/05/22 00:37:52;;;;;;;12.52;4.68;;;;;;;;;;4372055;32;67367;-62
2023/05/22 00:40:39;;;;;;;8.63;3.78;;;;;;;;;;4372403;32;58723;-63
2023/05/22 00:43:26;;;;;;;7.65;3.60;;;;;;;;;;4370950;32;70235;-63
2023/05/22 00:46:13;;;;;;;;;;;;;;;;;;4372131;32;69357;-62
2023/05/22 00:49:00;;;;;;;6.72;3.50;;;;;;;;;;4382754;32;67611;-62
2023/05/22 00:51:46;;;;;;;4.47;3.20;;;;;;;;;;4371716;32;71938;-62
2023/05/22 00:54:33;;;;;;;5.50;2.80;;;;;;;;;;4385026;32;66736;-63
2023/05/22 00:57:20;;;;;;;;;;;;;;;;;;4360986;32;68086;-62
2023/05/22 01:00:11;;;;;;;4.70;2.40;;;;;;;;;;4384161;32;59718;-62
2023/05/22 01:02:59;;;;;;;4.05;2.42;;;;;;;;;;4371189;32;70411;-61
2023/05/22 01:05:47;;;;;;;5.78;2.67;;;;;;;;;;4371296;32;67374;-62
2023/05/22 01:08:33;;;;;;;;;;;;;;;;;;4363943;32;68566;-62
2023/05/22 01:11:45;;;;;;;6.62;2.28;;;;;;;;;;4386567;32;59676;-62
2023/05/22 01:14:44;;;;;;;3.65;2.60;;;;;;;;;;4383041;32;69510;-61
2023/05/22 01:17:36;;;;;;;6.22;3.20;;;;;;;;;;4370517;32;68884;-62
2023/05/22 01:20:48;;;;;;;7.20;2.97;;;;;;;;;;4372003;32;66716;-63
2023/05/22 01:23:44;;;;;;;9.52;3.17;;;;;;;;;;4371408;32;71798;-63
2023/05/22 01:26:57;;;;;;;5.93;3.05;;;;;;;;;;4371420;32;65485;-62
2023/05/22 01:29:47;;;;;;;8.77;2.78;;;;;;;;;;4361061;32;67535;-63
2023/05/22 01:32:34;;;;;;;5.45;2.78;;;;;;;;;;4359859;32;66532;-61
2023/05/22 01:35:22;;;;;;;7.82;2.55;;;;;;;;;;4371888;32;70768;-62
2023/05/22 01:38:09;;;;;;;6.40;3.28;;;;;;;;;;4379233;32;66470;-62
2023/05/22 01:40:56;;;;;;;6.82;2.95;;;;;;;;;;4384469;32;66986;-61
2023/05/22 01:43:44;;;;;;;6.30;2.75;;;;;;;;;;4383612;32;59189;-62
2023/05/22 01:46:31;;;;;;;6.22;2.70;;;;;;;;;;4371360;32;70486;-63
2023/05/22 01:49:18;;;;;;;6.37;3.20;;;;;;;;;;4373823;32;69404;-62
2023/05/22 01:52:17;;;;;;;5.32;2.58;;;;;;;;;;4370465;32;68437;-62
2023/05/22 01:55:12;;;;;;;4.90;2.47;;;;;;;;;;4361447;32;70757;-62
2023/05/22 01:58:12;;;;;;;7.82;3.20;;;;;;;;;;4381870;32;70341;-63
2023/05/22 02:01:02;;;;;;;10.48;2.85;;;;;;;;;;4381590;32;69414;-63
2023/05/22 02:03:50;;;;;;;7.70;3.65;;;;;;;;;;4371528;32;66842;-62
2023/05/22 02:06:37;;;;;;;8.35;3.08;;;;;;;;;;4381558;32;71637;-63
2023/05/22 02:09:27;;;;;;;5.15;2.70;;;;;;;;;;4372111;32;65437;-63
2023/05/22 02:12:13;;;;;;;7.05;3.15;;;;;;;;;;4358944;32;67691;-63
2023/05/22 02:15:00;;;;;;;7.85;3.30;;;;;;;;;;4371259;32;60071;-62
2023/05/22 02:17:48;;;;;;;8.63;2.80;;;;;;;;;;4370240;32;70432;-63
2023/05/22 02:20:35;;;;;;;5.40;2.58;;;;;;;;;;4370108;32;69914;-62
2023/05/22 02:23:24;;;;;;;8.80;3.53;;;;;;;;;;4360777;32;67455;-62
2023/05/22 02:26:10;;;;;;;;;;;;;;;;;;4371335;32;59961;-62
2023/05/22 02:28:57;;;;;;;5.62;2.85;;;;;;;;;;4381715;32;69161;-63
2023/05/22 02:31:44;;;;;;;5.80;2.80;;;;;;;;;;4362072;32;68886;-62
2023/05/22 02:34:30;;;;;;;;;;;;;;;;;;4371077;32;67503;-63
2023/05/22 02:37:17;;;;;;;5.93;2.67;;;;;;;;;;4360531;32;71973;-62
2023/05/22 02:40:05;;;;;;;8.50;3.37;;;;;;;;;;4381505;32;65796;-62
2023/05/22 02:42:52;;;;;;;5.20;3.00;;;;;;;;;;4359286;32;68172;-62
2023/05/22 02:45:39;;;;;;;8.77;2.62;;;;;;;;;;4371030;32;58933;-62
2023/05/22 02:48:28;;;;;;;4.80;2.70;;;;;;;;;;4382428;32;71792;-62
2023/05/22 02:51:15;;;;;;;5.20;3.10;;;;;;;;;;4370070;32;66288;-62
2023/05/22 02:54:08;;;;;;;4.62;2.70;;;;;;;;;;4371868;32;67239;-63
2023/05/22 02:56:55;;;;;;;5.82;2.83;;;;;;;;;;4360311;32;60323;-63
2023/05/22 02:59:41;;;;;;;5.37;2.90;;;;;;;;;;4372794;32;69603;-63
2023/05/22 03:02:31;;;;;;;4.70;2.47;;;;;;;;;;4383823;32;68523;-63
2023/05/22 03:05:17;;;;;;;4.93;2.55;;;;;;;;;;4385039;32;67923;-63
2023/05/22 03:08:04;;;;;;;4.30;2.33;;;;;;;;;;4384101;32;71816;-62
2023/05/22 03:10:50;;;;;;;6.85;2.85;;;;;;;;;;4361035;32;70164;-64
2023/05/22 03:13:37;;;;;;;;;;;;;;;;;;4373289;32;69245;-62
2023/05/22 03:16:24;;;;;;;7.32;2.53;;;;;;;;;;4385115;32;67992;-62
2023/05/22 03:19:13;;;;;;;6.18;3.20;;;;;;;;;;4361914;32;72367;-62
2023/05/22 03:22:00;;;;;;;8.55;2.60;;;;;;;;;;4373230;32;66483;-61
2023/05/22 03:24:48;;;;;;;7.03;2.72;;;;;;;;;;4383751;32;67592;-63
2023/05/22 03:27:37;;;;;;;7.22;2.60;;;;;;;;;;4362570;32;60094;-63
2023/05/22 03:30:24;;;;;;;4.75;2.60;;;;;;;;;;4383560;32;70514;-62
2023/05/22 03:33:12;;;;;;;4.97;2.78;;;;;;;;;;4361506;32;69984;-61
2023/05/22 03:35:58;;;;;;;;;;;;;;;;;;4373272;32;66854;-62
2023/05/22 03:38:44;;;;;;;4.32;2.25;;;;;;;;;;4383798;32;59686;-63
2023/05/22 03:41:32;;;;;;;6.22;2.42;;;;;;;;;;4383595;32;70488;-62
2023/05/22 03:44:19;;;;;;;6.37;2.87;;;;;;;;;;4372727;32;69435;-62
2023/05/22 03:47:06;;;;;;;5.35;2.80;;;;;;;;;;4383119;32;66852;-63
2023/05/22 03:49:53;;;;;;;5.55;2.22;;;;;;;;;;4361939;32;71709;-63
2023/05/22 03:52:41;;;;;;;5.80;2.53;;;;;;;;;;4371680;32;67561;-62
2023/05/22 03:55:29;;;;;;;5.43;3.12;;;;;;;;;;4362076;32;67856;-63
2023/05/22 03:58:16;;;;;;;5.78;2.90;;;;;;;;;;4383372;32;59321;-62
2023/05/22 04:01:04;;;;;;;7.18;2.83;;;;;;;;;;4384385;32;71696;-63
2023/05/22 04:03:51;;;;;;;4.87;2.75;;;;;;;;;;4383029;32;66604;-63
2023/05/22 04:06:41;;;;;;;6.43;2.85;;;;;;;;;;4372315;32;67805;-63
2023/05/22 04:09:33;;;;;;;7.85;2.87;;;;;;;;;;4372120;32;60805;-63
2023/05/22 04:12:19;;;;;;;7.85;2.22;;;;;;;;;;4360243;32;70953;-62
2023/05/22 04:15:08;;;;;;;4.30;2.55;;;;;;;;;;4371396;32;68909;-63
2023/05/22 04:17:54;;;;;;;4.40;2.45;;;;;;;;;;4372385;32;66831;-63
2023/05/22 04:20:41;;;;;;;6.18;2.78;;;;;;;;;;4350317;32;72452;-63
2023/05/22 04:23:28;;;;;;;5.90;3.28;;;;;;;;;;4372731;32;65461;-62
2023/05/22 04:26:16;;;;;;;5.62;2.87;;;;;;;;;;4382615;32;68885;-61
2023/05/22 04:29:05;;;;;;;6.00;2.70;;;;;;;;;;4382748;32;67732;-63
2023/05/22 04:31:54;;;;;;;5.50;2.90;;;;;;;;;;4371344;32;72879;-63
2023/05/22 04:34:41;;;;;;;7.40;3.20;;;;;;;;;;4372113;32;66507;-63
2023/05/22 04:37:30;;;;;;;8.77;2.83;;;;;;;;;;4372231;32;68154;-63
2023/05/22 04:40:16;;;;;;;5.93;2.47;;;;;;;;;;4372585;32;59061;-63
2023/05/22 04:43:04;;;;;;;6.15;2.45;;;;;;;;;;4371936;32;69576;-62
2023/05/22 04:45:50;;;;;;;;;;;;;;;;;;4383118;32;68621;-63
2023/05/22 04:48:37;;;;;;;10.07;5.80;;;;;;;;;;4382943;32;67150;-62
2023/05/22 04:51:23;;;;;;;4.75;2.85;;;;;;;;;;4361848;32;60084;-62
2023/05/22 04:54:11;;;;;;;4.22;2.08;;;;;;;;;;4382251;32;70607;-62
2023/05/22 04:56:59;;;;;;;4.12;2.40;;;;;;;;;;4360773;32;69397;-63
2023/05/22 04:59:46;;;;;;;4.87;2.50;;;;;;;;;;4361167;32;66863;-62
2023/05/22 05:02:34;;;;;;;6.80;4.32;;;;;;;;;;4371492;32;71847;-62
2023/05/22 05:05:20;;;;;;;;;;;;;;;;;;4372184;32;65405;-62
2023/05/22 05:08:28;;;;;;;7.40;3.05;;;;;;;;;;4382606;32;68809;-63
2023/05/22 05:11:15;;;;;;;4.82;2.80;;;;;;;;;;4370955;32;60610;-62
2023/05/22 05:14:02;;;;;;;6.93;2.70;;;;;;;;;;4360647;32;70762;-62
2023/05/22 05:16:50;;;;;;;;;;;;;;;;;;4372116;32;65469;-63
2023/05/22 05:19:37;;;;;;;4.93;2.97;;;;;;;;;;4382368;32;67093;-63
2023/05/22 05:22:24;;;;;;;7.53;2.53;;;;;;;;;;4371180;32;60720;-63
2023/05/22 05:25:11;;;;;;;4.45;2.33;;;;;;;;;;4371405;32;70725;-64
2023/05/22 05:27:58;;;;;;;8.23;3.03;;;;;;;;;;4371582;32;68460;-63
2023/05/22 05:30:46;;;;;;;;;;;;;;;;;;4382656;32;67604;-62
2023/05/22 05:33:47;;;;;;;5.07;2.72;;;;;;;;;;4372234;32;72471;-63
2023/05/22 05:36:34;;;;;;;6.32;2.55;;;;;;;;;;4382154;32;66873;-63
2023/05/22 05:39:21;;;;;;;7.03;3.50;;;;;;;;;;4371432;32;69426;-63
2023/05/22 05:42:08;;;;;;;;;;;;;;;;;;4382164;32;67678;-63
2023/05/22 05:44:55;;;;;;;4.87;2.40;;;;;;;;;;4383354;32;70899;-63
2023/05/22 05:47:42;;;;;;;3.40;2.20;;;;;;;;;;4370605;32;67176;-63
2023/05/22 05:50:28;;;;;;;;;;;;;;;;;;4371055;32;67433;-62
2023/05/22 05:53:15;;;;;;;8.02;2.40;;;;;;;;;;4383678;32;59649;-63
2023/05/22 05:56:06;;;;;;;5.93;2.47;;;;;;;;;;4374377;32;71534;-62
2023/05/22 05:58:54;;;;;;;9.07;2.87;;;;;;;;;;4373934;32;69667;-63
2023/05/22 06:01:44;;;;;;;4.32;2.40;;;;;;;;;;4382218;32;66823;-63
2023/05/22 06:04:32;;;;;;;4.93;2.67;;;;;;;;;;4382292;32;60169;-63
2023/05/22 06:07:19;;;;;;;7.85;3.33;;;;;;;;;;4370465;32;71744;-62
2023/05/22 06:10:08;;;;;;;4.62;2.87;;;;;;;;;;4370108;32;69826;-62
2023/05/22 06:12:55;;;;;;;3.97;2.20;;;;;;;;;;4381257;32;67574;-62
2023/05/22 06:15:43;;;;;;;3.70;1.80;;;;;;;;;;4382043;32;71635;-63
2023/05/22 06:18:29;;;;;;;4.78;2.47;;;;;;;;;;4372651;32;65378;-63
2023/05/22 06:21:19;;;;;;;5.62;2.35;;;;;;;;;;4371066;32;67639;-62
2023/05/22 06:24:06;;;;;;;6.12;2.35;;;;;;;;;;4370219;32;60540;-63
2023/05/22 06:26:53;;;;;;;3.42;2.10;;;;;;;;;;4382561;32;70700;-62
2023/05/22 06:29:40;;;;;;;;;;;;;;;;;;4371206;32;67018;-62
2023/05/22 06:32:27;;;;;;;3.55;2.12;;;;;;;;;;4370925;32;68370;-63
2023/05/22 06:35:13;;;;;;;4.43;2.42;;;;;;;;;;4362384;32;57716;-62
2023/05/22 06:38:00;;;;;;;6.20;1.98;;;;;;;;;;4384950;32;71006;-64
2023/05/22 06:40:47;;;;;;;4.78;2.47;;;;;;;;;;4372636;32;69220;-64
2023/05/22 06:43:34;;;;;;;3.67;2.35;;;;;;;;;;4363625;32;66914;-63
2023/05/22 06:46:24;;;;;;;5.57;2.35;;;;;;;;;;4384913;32;71827;-64
2023/05/22 06:49:11;;;;;;;2.95;2.25;;;;;;;;;;4373587;32;66636;-65
2023/05/22 06:51:58;;;;;;;5.37;2.10;;;;;;;;;;4373800;32;68333;-63
2023/05/22 06:54:48;;;;;;;5.10;2.55;;;;;;;;;;4368115;32;67934;-63
2023/05/22 06:57:38;;;;;;;3.55;2.05;;;;;;;;;;4373681;32;71953;-61
2023/05/22 07:00:25;;;;;;;5.15;2.15;;;;;;;;;;4394189;32;66120;-62
2023/05/22 07:03:12;;;;;;;5.87;2.60;;;;;;;;;;4385483;32;68150;-63
2023/05/22 07:06:01;;;;;;;6.75;2.75;;;;;;;;;;4372407;32;64691;-64
2023/05/22 07:08:47;;;;;;;4.82;3.00;;;;;;;;;;4362973;32;70167;-63
2023/05/22 07:11:35;;;;;;;5.20;2.87;;;;;;;;;;4373015;32;69462;-63
2023/05/22 07:14:21;;;;;;;3.78;2.42;;;;;;;;;;4362727;32;67251;-63
2023/05/22 07:17:09;;;;;;;5.60;2.75;;;;;;;;;;4383979;32;72225;-63
2023/05/22 07:19:56;;;;;;;5.50;2.55;;;;;;;;;;4383462;32;70646;-62
2023/05/22 07:22:44;;;;;;;4.18;2.65;;;;;;;;;;4373502;32;68348;-61
2023/05/22 07:25:31;;;;;;;6.57;2.58;;;;;;;;;;4351185;32;68092;-63
2023/05/22 07:28:21;;;;;;;4.70;2.58;;;;;;;;;;4384342;32;70467;-63
2023/05/22 07:31:07;;;;;;;4.57;2.35;;;;;;;;;;4361800;32;67310;-63
2023/05/22 07:33:56;;;;;;;7.82;2.85;;;;;;;;;;4372076;32;68938;-64
2023/05/22 07:36:43;;;;;;;6.60;2.53;;;;;;;;;;4372652;32;59190;-63
2023/05/22 07:39:29;;;;;;;3.67;2.33;;;;;;;;;;4372269;32;70334;-63
2023/05/22 07:42:16;;;;;;;5.68;2.20;;;;;;;;;;4382436;32;69834;-62
2023/05/22 07:47:49;;;;;;;7.22;2.42;;;;;;;;;;3827088;37;43929;-64
2023/05/22 07:50:36;;;;;;;3.12;2.22;;;;;;;;;;4373399;32;60308;-64
2023/05/22 07:53:23;;;;;;;5.32;2.28;;;;;;;;;;4395427;32;69523;-64
2023/05/22 07:56:10;;;;;;;8.07;2.67;;;;;;;;;;4394270;32;69170;-64
2023/05/22 07:58:57;;;;;;;5.60;2.80;;;;;;;;;;4383645;32;67401;-64
2023/05/22 08:01:44;;;;;;;3.80;2.25;;;;;;;;;;4393920;32;71104;-63
2023/05/22 08:04:30;;;;;;;4.78;2.12;;;;;;;;;;4362321;32;66258;-64
2023/05/22 08:07:17;;;;;;;;;;;;;;;;;;4383719;32;67446;-63
2023/05/22 08:10:14;;;;;;;9.23;2.40;;;;;;;;;;4393597;32;60456;-63
2023/05/22 08:13:04;;;;;;;4.43;2.40;;;;;;;;;;4393918;32;70711;-64
2023/05/22 08:15:51;;;;;;;5.28;2.37;;;;;;;;;;4379047;32;66531;-65
2023/05/22 08:18:38;;;;;;;5.20;2.25;;;;;;;;;;4379115;32;66649;-63
2023/05/22 08:21:25;;;;;;;4.00;2.03;;;;;;;;;;4368404;32;59927;-64
2023/05/22 08:24:11;;;;;;;;;;;;;;;;;;4380826;32;70477;-63
2023/05/22 08:26:59;;;;;;;3.80;2.10;;;;;;;;;;4380201;32;69425;-63
2023/05/22 08:29:45;;;;;;;3.00;2.30;;;;;;;;;;4379070;32;68010;-62
2023/05/22 08:32:26;;;;;;;3.40;2.20;;;;;;;;;;3850341;37;43414;-61
2023/05/22 08:35:13;;;;;;;7.20;2.47;;;;;;;;;;4413480;32;60192;-62
2023/05/22 08:37:59;;;;;;;;;;;;;;;;;;4388683;32;70635;-63
2023/05/22 08:40:50;;;;;;;5.07;2.40;;;;;;;;;;4399173;32;68523;-63
2023/05/22 08:43:37;;;;;;;4.82;2.60;;;;;;;;;;4399138;32;67035;-63
2023/05/22 08:46:28;;;;;;;3.58;1.87;;;;;;;;;;4398827;32;71970;-64
2023/05/22 08:49:17;;;;;;;4.60;2.90;;;;;;;;;;4388968;32;67391;-65
2023/05/22 08:52:11;;;;;;;4.12;2.53;;;;;;;;;;4387813;32;67900;-62
2023/05/22 08:54:58;;;;;;;5.87;2.35;;;;;;;;;;4398321;32;59875;-61
2023/05/22 08:57:49;;;;;;;5.00;2.90;;;;;;;;;;4387966;32;71637;-62
2023/05/22 09:00:37;;;;;;;5.95;2.62;;;;;;;;;;4388323;32;66636;-61
2023/05/22 09:03:31;;;;;;;6.40;2.67;;;;;;;;;;4388089;32;67621;-63
2023/05/22 09:06:18;;;;;;;3.45;2.20;;;;;;;;;;4411088;32;60489;-62
2023/05/22 09:09:05;;;;;;;4.82;2.50;;;;;;;;;;4412510;32;69647;-64
2023/05/22 09:11:54;;;;;;;5.00;2.30;;;;;;;;;;4400221;32;69670;-63
2023/05/22 09:14:42;;;;;;;2.62;2.08;;;;;;;;;;4389175;32;68333;-62
2023/05/22 09:17:28;;;;;;;4.10;2.25;;;;;;;;;;4398360;32;71965;-64
2023/05/22 09:20:15;;;;;;;;;;;;;;;;;;4409732;32;65602;-64
2023/05/22 09:23:02;;;;;;;5.35;2.60;;;;;;;;;;4398940;32;68443;-64
2023/05/22 09:25:51;;;;;;;4.62;2.20;;;;;;;;;;4398382;32;68039;-63
2023/05/22 09:28:37;;;;;;;2.45;1.90;;;;;;;;;;4408618;32;71847;-64
2023/05/22 09:31:24;;;;;;;8.00;2.65;;;;;;;;;;4376168;32;67693;-63
2023/05/22 09:34:14;;;;;;;4.28;2.22;;;;;;;;;;4408992;32;67768;-62
2023/05/22 09:37:05;;;;;;;5.60;2.17;;;;;;;;;;4388145;32;59266;-62
2023/05/22 09:39:53;;;;;;;4.62;2.50;;;;;;;;;;4386690;32;71602;-63
2023/05/22 09:42:44;;;;;;;5.70;2.70;;;;;;;;;;4393784;32;68665;-63
2023/05/22 09:45:34;;;;;;;7.75;2.50;;;;;;;;;;4387820;32;68194;-63
2023/05/22 09:48:21;;;;;;;3.92;2.50;;;;;;;;;;4388448;32;60273;-63
2023/05/22 09:51:10;;;;;;;5.70;2.55;;;;;;;;;;4388072;32;69785;-63
2023/05/22 09:54:02;;;;;;;3.37;2.20;;;;;;;;;;4389996;32;68377;-63
2023/05/22 09:56:49;;;;;;;6.90;2.87;;;;;;;;;;4393140;32;67604;-64
2023/05/22 09:59:39;;;;;;;8.50;3.05;;;;;;;;;;4377741;32;71198;-64
2023/05/22 10:02:26;;;;;;;4.53;2.92;;;;;;;;;;4377558;32;67176;-63
2023/05/22 10:05:20;;;;;;;7.12;2.37;;;;;;;;;;4377377;32;66651;-62
2023/05/22 10:08:13;;;;;;;4.45;2.70;;;;;;;;;;4388758;32;59240;-63
2023/05/22 10:11:00;;;;;;;6.18;2.30;;;;;;;;;;4387727;32;70942;-63
2023/05/22 10:13:46;;;;;;;;;;;;;;;;;;4387947;32;65505;-63
2023/05/22 10:16:37;;;;;;;6.37;3.20;;;;;;;;;;4387687;32;67235;-63
2023/05/22 10:19:25;;;;;;;7.45;2.70;;;;;;;;;;4387341;32;59866;-64
2023/05/22 10:22:19;;;;;;;6.03;2.53;;;;;;;;;;4386964;32;71128;-65
2023/05/22 10:25:06;;;;;;;4.45;2.37;;;;;;;;;;4377428;32;69129;-63
2023/05/22 10:27:53;;;;;;;3.75;2.00;;;;;;;;;;4386983;32;67919;-64
2023/05/22 10:30:44;;;;;;;4.68;2.33;;;;;;;;;;4366278;32;71808;-63
2023/05/22 10:33:38;;;;;;;4.32;2.58;;;;;;;;;;4398489;32;65495;-64
2023/05/22 10:36:37;;;;;;;4.32;2.28;;;;;;;;;;4388040;32;68190;-63
2023/05/22 10:39:54;;;;;;;8.43;2.40;;;;;;;;;;4387601;32;67338;-64
2023/05/22 10:42:40;;;;;;;3.45;2.40;;;;;;;;;;4388307;32;72119;-63
2023/05/22 10:45:28;;;;;;;2.20;1.83;;;;;;;;;;4399290;32;65765;-65
2023/05/22 10:48:15;;;;;;;3.65;2.28;;;;;;;;;;4386789;32;67436;-64
2023/05/22 10:51:03;;;;;;;4.37;2.50;;;;;;;;;;4376710;32;59234;-64
2023/05/22 10:53:57;;;;;;;4.07;2.15;;;;;;;;;;4365219;32;71704;-63
2023/05/22 10:56:45;;;;;;;6.62;2.67;;;;;;;;;;4387189;32;68933;-62
2023/05/22 10:59:34;;;;;;;3.20;1.87;;;;;;;;;;4376055;32;68187;-63
2023/05/22 11:02:29;;;;;;;4.10;2.20;;;;;;;;;;4387348;32;59967;-63
2023/05/22 11:05:22;;;;;;;4.75;2.35;;;;;;;;;;4376797;32;69656;-63
2023/05/22 11:08:26;;;;;;;7.60;2.92;;;;;;;;;;4397222;32;69909;-63
2023/05/22 11:11:13;;;;;;;4.25;2.37;;;;;;;;;;4397599;32;66426;-64
2023/05/22 11:14:03;;;;;;;4.45;2.40;;;;;;;;;;4385904;32;71368;-62
2023/05/22 11:16:59;;;;;;;6.68;2.47;;;;;;;;;;4386346;32;67867;-62
2023/05/22 11:20:14;;;;;;;5.95;2.17;;;;;;;;;;4397675;32;66663;-64
2023/05/22 11:23:08;;;;;;;5.22;2.03;;;;;;;;;;4399099;32;60676;-63
2023/05/22 11:25:55;;;;;;;3.65;1.92;;;;;;;;;;4386961;32;69801;-62
2023/05/22 11:28:42;;;;;;;3.00;1.27;;;;;;;;;;4387095;32;65589;-63
2023/05/22 11:31:29;;;;;;;3.17;2.22;;;;;;;;;;4385736;32;68524;-63
2023/05/22 11:34:16;;;;;;;3.65;1.92;;;;;;;;;;4386904;32;60355;-63
2023/05/22 11:37:03;;;;;;;4.18;2.30;;;;;;;;;;4375811;32;69739;-64
2023/05/22 11:39:57;;;;;;;7.07;2.20;;;;;;;;;;4397538;32;68231;-62
2023/05/22 11:42:44;;;;;;;2.55;2.00;;;;;;;;;;4386667;32;67822;-63
2023/05/22 11:45:30;;;;;;;;;;;;;;;;;;4387000;32;70798;-63
2023/05/22 11:48:19;;;;;;;7.33;2.23;;;;;;;;;;4398733;32;67102;-65
2023/05/22 11:51:07;;;;;;;4.65;2.40;;;;;;;;;;4397691;32;66723;-63
2023/05/22 11:53:54;;;;;;;2.67;2.00;;;;;;;;;;4386582;32;67899;-64
2023/05/22 11:56:41;;;;;;;9.70;2.42;;;;;;;;;;4386574;32;71519;-64
2023/05/22 11:59:28;;;;;;;2.40;2.00;;;;;;;;;;4397329;32;65365;-65
2023/05/22 12:02:16;;;;;;;4.82;2.08;;;;;;;;;;4376346;32;67877;-63
2023/05/22 12:05:03;;;;;;;4.28;2.22;;;;;;;;;;4387131;32;59004;-64
2023/05/22 12:07:49;;;;;;;7.28;2.60;;;;;;;;;;4402232;32;70342;-64
2023/05/22 12:10:36;;;;;;;3.83;1.95;;;;;;;;;;4399757;32;69422;-64
2023/05/22 12:13:24;;;;;;;4.93;1.98;;;;;;;;;;4399859;32;67645;-63
2023/05/22 12:16:21;;;;;;;5.40;2.28;;;;;;;;;;4391193;32;71668;-63
2023/05/22 12:19:08;;;;;;;4.90;2.08;;;;;;;;;;4394474;32;71109;-65
2023/05/22 12:21:56;;;;;;;4.95;2.10;;;;;;;;;;4383997;32;69595;-64
2023/05/22 12:24:46;;;;;;;2.90;1.98;;;;;;;;;;4391841;32;67808;-63
2023/05/22 12:27:32;;;;;;;7.37;2.28;;;;;;;;;;4400070;32;71772;-63
2023/05/22 12:30:19;;;;;;;5.78;2.62;;;;;;;;;;4400135;32;66792;-63
2023/05/22 12:33:13;;;;;;;3.78;2.05;;;;;;;;;;4385347;32;68190;-65
2023/05/22 12:36:00;;;;;;;5.18;2.37;;;;;;;;;;4386637;32;59190;-63
2023/05/22 12:38:46;;;;;;;3.10;1.83;;;;;;;;;;4386187;32;69435;-63
2023/05/22 12:41:33;;;;;;;;;;;;;;;;;;4375821;32;69186;-64
2023/05/22 12:44:20;;;;;;;2.03;1.55;;;;;;;;;;4397075;32;67406;-64
2023/05/22 12:47:06;;;;;;;4.05;2.40;;;;;;;;;;4385796;32;60606;-64
2023/05/22 12:49:53;;;;;;;6.25;2.70;;;;;;;;;;4396034;32;71664;-62
2023/05/22 12:52:39;;;;;;;;;;;;;;;;;;4364476;32;68189;-64
2023/05/22 12:55:26;;;;;;;3.28;2.03;;;;;;;;;;4396718;32;67980;-65
2023/05/22 12:58:13;;;;;;;2.80;2.08;;;;;;;;;;4386452;32;72126;-64
2023/05/22 13:00:59;;;;;;;;;;;;;;;;;;4374896;32;67135;-64
2023/05/22 13:03:46;;;;;;;3.17;1.75;;;;;;;;;;4398441;32;67420;-64
2023/05/22 13:06:32;;;;;;;4.78;2.08;;;;;;;;;;4374550;32;61512;-64
2023/05/22 13:09:19;;;;;;;;;;;;;;;;;;4386505;32;71625;-63
2023/05/22 13:12:07;;;;;;;3.25;1.58;;;;;;;;;;4396722;32;66784;-64
2023/05/22 13:14:53;;;;;;;7.37;2.42;;;;;;;;;;4396611;32;67076;-63
2023/05/22 13:17:39;;;;;;;;;;;;;;;;;;4387532;32;60276;-64
2023/05/22 13:20:26;;;;;;;4.15;2.50;;;;;;;;;;4399288;32;68934;-63
2023/05/22 13:23:12;;;;;;;;;;;;;;;;;;4388381;32;68875;-64
2023/05/22 13:26:00;;;;;;;7.28;2.30;;;;;;;;;;4399411;32;67952;-65
2023/05/22 13:28:47;;;;;;;2.78;2.00;;;;;;;;;;4378024;32;71542;-64
2023/05/22 13:31:36;;;;;;;;;;;;;;;;;;4377762;32;70679;-64
2023/05/22 13:34:22;;;;;;;5.32;1.52;;;;;;;;;;4400020;32;69088;-64
2023/05/22 13:37:09;;;;;;;5.53;1.80;;;;;;;;;;4388063;32;67950;-64
2023/05/22 13:39:56;;;;;;;4.57;2.28;;;;;;;;;;4387679;32;72245;-64
2023/05/22 13:42:43;;;;;;;3.00;2.00;;;;;;;;;;4390761;32;66676;-63
2023/05/22 13:45:30;;;;;;;4.10;2.45;;;;;;;;;;4399396;32;67864;-64
2023/05/22 13:48:18;;;;;;;5.97;2.00;;;;;;;;;;4387912;32;61278;-64
2023/05/22 13:51:05;;;;;;;5.70;2.22;;;;;;;;;;4398629;32;70273;-64
2023/05/22 13:53:51;;;;;;;5.28;2.35;;;;;;;;;;4387957;32;69044;-63
2023/05/22 13:56:38;;;;;;;5.10;2.20;;;;;;;;;;4387152;32;68509;-64
2023/05/22 13:59:24;;;;;;;;;;;;;;;;;;4388093;32;60478;-63
2023/05/22 14:02:11;;;;;;;4.75;2.25;;;;;;;;;;4387718;32;70558;-64
2023/05/22 14:04:58;;;;;;;2.50;2.00;;;;;;;;;;4389691;32;69522;-64
2023/05/22 14:07:44;;;;;;;;;;;;;;;;;;4402175;32;67631;-64
2023/05/22 14:10:31;;;;;;;2.97;2.20;;;;;;;;;;4399222;32;71271;-64
2023/05/22 14:13:17;;;;;;;6.03;2.12;;;;;;;;;;4388230;32;65757;-64
2023/05/22 14:16:04;;;;;;;3.25;1.90;;;;;;;;;;4376785;32;67500;-64
2023/05/22 14:18:51;;;;;;;7.35;2.50;;;;;;;;;;4404851;32;59405;-64
2023/05/22 14:21:37;;;;;;;;;;;;;;;;;;4392048;32;70804;-63
2023/05/22 14:24:23;;;;;;;3.17;2.03;;;;;;;;;;4398970;32;65869;-64
2023/05/22 14:27:10;;;;;;;4.30;2.50;;;;;;;;;;4397974;32;66912;-64
2023/05/22 14:29:57;;;;;;;;;;;;;;;;;;4398188;32;59949;-63
2023/05/22 14:32:44;;;;;;;4.32;2.30;;;;;;;;;;4376256;32;69840;-64
2023/05/22 14:35:31;;;;;;;5.12;2.17;;;;;;;;;;4386679;32;69830;-63
2023/05/22 14:38:17;;;;;;;;;;;;;;;;;;4398591;32;67626;-64
2023/05/22 14:41:03;;;;;;;2.58;1.77;;;;;;;;;;4399328;32;72156;-64
2023/05/22 14:43:50;;;;;;;3.40;1.92;;;;;;;;;;4376512;32;66824;-64
2023/05/22 14:46:37;;;;;;;;;;;;;;;;;;4388039;32;69318;-63
2023/05/22 14:49:24;;;;;;;3.28;2.05;;;;;;;;;;4399363;32;68128;-64
2023/05/22 14:52:10;;;;;;;4.80;2.20;;;;;;;;;;4387116;32;71988;-64
2023/05/22 14:54:56;;;;;;;;;;;;;;;;;;4387743;32;65674;-64
2023/05/22 14:57:42;;;;;;;4.22;2.28;;;;;;;;;;4365291;32;68367;-63
2023/05/22 15:00:29;;;;;;;5.12;2.15;;;;;;;;;;4365520;32;60799;-64
2023/05/22 15:03:17;;;;;;;;;;;;;;;;;;4398092;32;70407;-63
2023/05/22 15:06:04;;;;;;;4.00;2.65;;;;;;;;;;4386555;32;70459;-63
2023/05/22 15:08:51;;;;;;;4.00;2.00;;;;;;;;;;4386262;32;68277;-63
2023/05/22 15:11:38;;;;;;;4.05;2.50;;;;;;;;;;4366626;32;57724;-64
2023/05/22 15:14:24;;;;;;;7.57;2.30;;;;;;;;;;4397561;32;70845;-65
2023/05/22 15:17:11;;;;;;;5.20;2.28;;;;;;;;;;4365099;32;69624;-63
2023/05/22 15:19:57;;;;;;;5.05;3.20;;;;;;;;;;4397380;32;67922;-64
2023/05/22 15:22:44;;;;;;;3.40;2.35;;;;;;;;;;4397308;32;70749;-65
2023/05/22 15:25:35;;;;;;;7.47;2.40;;;;;;;;;;4398871;32;66962;-64
2023/05/22 15:28:22;;;;;;;3.60;2.12;;;;;;;;;;4386020;32;68572;-64
2023/05/22 15:31:08;;;;;;;;;;;;;;;;;;4375365;32;61158;-64
2023/05/22 15:33:55;;;;;;;4.37;2.62;;;;;;;;;;4397339;32;69797;-64
2023/05/22 15:36:41;;;;;;;;;;;;;;;;;;4397762;32;66615;-64
2023/05/22 15:39:28;;;;;;;4.57;2.67;;;;;;;;;;4398743;32;67588;-64
2023/05/22 15:42:14;;;;;;;6.85;2.75;;;;;;;;;;4365203;32;60338;-64
2023/05/22 15:45:01;;;;;;;6.07;2.90;;;;;;;;;;4386442;32;70851;-64
2023/05/22 15:47:48;;;;;;;5.30;2.72;;;;;;;;;;4364614;32;69921;-62
2023/05/22 15:50:35;;;;;;;5.75;2.60;;;;;;;;;;4375283;32;65038;-64
2023/05/22 15:53:21;;;;;;;12.40;3.20;;;;;;;;;;4364748;32;72185;-63
2023/05/22 15:56:08;;;;;;;9.10;3.00;;;;;;;;;;4386850;32;65650;-62
2023/05/22 15:58:55;;;;;;;6.57;2.80;;;;;;;;;;4397399;32;69435;-64
2023/05/22 16:01:41;;;;;;;;;;;;;;;;;;4386474;32;67964;-64
2023/05/22 16:04:28;;;;;;;4.82;3.00;;;;;;;;;;4386522;32;72072;-64
2023/05/22 16:07:17;;;;;;;;;;;;;;;;;;4399037;32;66641;-64
2023/05/22 16:10:04;;;;;;;10.73;3.22;;;;;;;;;;4386077;32;68320;-64
2023/05/22 16:12:51;;;;;;;7.28;3.28;;;;;;;;;;4397150;32;59056;-64
2023/05/22 16:15:38;;;;;;;;;;;;;;;;;;4399469;32;69633;-64
2023/05/22 16:18:24;;;;;;;5.30;3.15;;;;;;;;;;4386352;32;68786;-64
2023/05/22 16:21:10;;;;;;;;;;;;;;;;;;4397478;32;67694;-65
2023/05/22 16:23:56;;;;;;;9.50;3.25;;;;;;;;;;4375538;32;60535;-64
2023/05/22 16:26:43;;;;;;;6.72;3.22;;;;;;;;;;4375365;32;68747;-63
2023/05/22 16:29:31;;;;;;;5.62;3.25;;;;;;;;;;4378572;32;68424;-63
2023/05/22 16:32:17;;;;;;;8.48;3.22;;;;;;;;;;4394925;32;67192;-64
2023/05/22 16:35:04;;;;;;;;;;;;;;;;;;4402065;32;70894;-64
2023/05/22 16:37:51;;;;;;;7.90;4.40;;;;;;;;;;4398566;32;66694;-63
2023/05/22 16:40:38;;;;;;;8.07;3.40;;;;;;;;;;4399331;32;66903;-64
2023/05/22 16:43:24;;;;;;;;;;;;;;;;;;4400485;32;59276;-64
2023/05/22 16:46:11;;;;;;;11.70;3.55;;;;;;;;;;4386105;32;70379;-63
2023/05/22 16:48:57;;;;;;;;;;;;;;;;;;4396691;32;66486;-64
2023/05/22 16:51:43;;;;;;;12.45;4.37;;;;;;;;;;4396927;32;68045;-65
2023/05/22 16:54:30;;;;;;;;;;;;;;;;;;4401342;32;60364;-63
2023/05/22 16:57:16;;;;;;;6.87;3.75;;;;;;;;;;4388742;32;70322;-63
2023/05/22 17:00:05;;;;;;;8.05;4.05;;;;;;;;;;4399266;32;69214;-64
2023/05/22 17:02:52;;;;;;;9.35;3.95;;;;;;;;;;4387795;32;68095;-64
2023/05/22 17:05:40;;;;;;;7.15;3.50;;;;;;;;;;4400449;32;70587;-64